Time;durP1;ratioP1;P1;durP2;ratioP2;P2;SDS_P1;SDS_P2;PMS_P1;PMS_P2;Temp;Humidity;BMP_temperature;BMP_pressure;BME280_temperature;BME280_humidity;BME280_pressure;Samples;Min_cycle;Max_cycle;Signal;HPM_P1;HPM_P2
2020/12/19 00:02:11;;;;;;;;;;;11.50;99.90;;;;;;5037799;28;19925;-85
2020/12/19 00:04:37;;;;;;;;;;;11.50;99.90;;;;;;5037434;28;20324;-85
2020/12/19 00:07:03;;;;;;;;;;;11.70;99.90;;;;;;5037537;28;19925;-85
2020/12/19 00:09:29;;;;;;;;;;;11.50;99.90;;;;;;5037394;28;19929;-84
2020/12/19 00:11:56;;;;;;;;;;;11.50;99.90;;;;;;5037334;28;20362;-86
2020/12/19 00:14:23;;;;;;;;;;;11.50;99.90;;;;;;5037237;28;19931;-87
2020/12/19 00:16:49;;;;;;;;;;;11.80;99.90;;;;;;5037524;28;19929;-87
2020/12/19 00:19:16;;;;;;;;;;;11.70;99.90;;;;;;5037122;28;20020;-86
2020/12/19 00:21:42;;;;;;;;;;;11.50;99.90;;;;;;5037066;28;20342;-86
2020/12/19 00:24:09;;;;;;;;;;;11.50;99.90;;;;;;5037220;28;20008;-86
2020/12/19 00:26:35;;;;;;;;;;;11.80;99.90;;;;;;5037213;28;19925;-85
2020/12/19 00:29:01;;;;;;;;;;;11.50;99.90;;;;;;5037002;28;20250;-86
2020/12/19 00:31:29;;;;;;;;;;;11.50;99.90;;;;;;5037029;28;19925;-85
2020/12/19 00:33:55;;;;;;;;;;;11.80;99.90;;;;;;5036963;28;19926;-85
2020/12/19 00:36:22;;;;;;;;;;;11.70;99.90;;;;;;5035953;28;19948;-85
2020/12/19 00:41:34;;;;;;;;;;;11.80;99.90;;;;;;5036836;28;19925;-86
2020/12/19 00:44:01;;;;;;;;;;;11.50;99.90;;;;;;5036677;28;19959;-85
2020/12/19 00:46:27;;;;;;;;;;;11.50;99.90;;;;;;5036655;28;19925;-86
2020/12/19 00:48:54;;;;;;;;;;;11.50;99.90;;;;;;5036765;28;19974;-85
2020/12/19 00:51:21;;;;;;;;;;;11.70;99.90;;;;;;5036774;28;19971;-85
2020/12/19 00:53:49;;;;;;;;;;;11.50;99.90;;;;;;5036417;28;20334;-85
2020/12/19 00:56:18;;;;;;;;;;;11.70;99.90;;;;;;5036776;28;19929;-85
2020/12/19 00:58:44;;;;;;;;;;;10.60;99.90;;;;;;5036501;28;19986;-85
2020/12/19 01:01:11;;;;;;;;;;;11.40;99.90;;;;;;5036510;28;20246;-85
2020/12/19 01:03:37;;;;;;;;;;;11.50;99.90;;;;;;5036454;28;19925;-85
2020/12/19 01:06:05;;;;;;;;;;;11.70;99.90;;;;;;5036425;28;19935;-85
2020/12/19 01:08:31;;;;;;;;;;;11.70;99.90;;;;;;5036255;28;20043;-86
2020/12/19 01:10:57;;;;;;;;;;;11.50;99.90;;;;;;5036214;28;20364;-85
2020/12/19 01:13:27;;;;;;;;;;;11.70;99.90;;;;;;5035483;28;20345;-85
2020/12/19 01:15:54;;;;;;;;;;;11.40;99.90;;;;;;5035873;28;19933;-85
2020/12/19 01:18:22;;;;;;;;;;;11.40;99.90;;;;;;5033363;28;20357;-84
2020/12/19 01:20:50;;;;;;;;;;;11.40;99.90;;;;;;5035712;28;19925;-83
2020/12/19 01:23:18;;;;;;;;;;;11.40;99.90;;;;;;5035498;28;19932;-81
2020/12/19 01:25:45;;;;;;;;;;;11.40;99.90;;;;;;5035460;28;20333;-79
2020/12/19 01:28:12;;;;;;;;;;;11.20;99.90;;;;;;5035591;28;19987;-79
2020/12/19 01:30:42;;;;;;;;;;;11.10;99.90;;;;;;5035463;28;19932;-79
2020/12/19 01:33:09;;;;;;;;;;;11.00;99.90;;;;;;5035442;28;19925;-82
2020/12/19 01:35:37;;;;;;;;;;;11.00;99.90;;;;;;5035311;28;19925;-80
2020/12/19 01:38:05;;;;;;;;;;;10.90;99.90;;;;;;5035747;28;19925;-80
2020/12/19 01:40:48;;;;;;;;;;;10.90;99.90;;;;;;5035323;28;19925;-82
2020/12/19 01:43:15;;;;;;;;;;;10.90;99.90;;;;;;5033679;28;19936;-81
2020/12/19 01:45:43;;;;;;;;;;;11.00;99.90;;;;;;5035456;28;20354;-80
2020/12/19 01:48:14;;;;;;;;;;;10.90;99.90;;;;;;5034857;28;19925;-82
2020/12/19 01:50:41;;;;;;;;;;;10.90;99.90;;;;;;5035304;28;19932;-80
2020/12/19 01:53:09;;;;;;;;;;;11.00;99.90;;;;;;5032917;28;19936;-80
2020/12/19 01:55:37;;;;;;;;;;;11.00;99.90;;;;;;5035351;28;19987;-80
2020/12/19 01:58:04;;;;;;;;;;;10.90;99.90;;;;;;5035007;28;19925;-81
2020/12/19 02:00:35;;;;;;;;;;;10.90;99.90;;;;;;5034826;28;20261;-83
2020/12/19 02:03:02;;;;;;;;;;;10.80;99.90;;;;;;5034943;28;20023;-81
2020/12/19 02:05:28;;;;;;;;;;;10.80;99.90;;;;;;5032706;28;19932;-79
2020/12/19 02:07:56;;;;;;;;;;;10.70;99.90;;;;;;5034786;28;19936;-81
2020/12/19 02:10:24;;;;;;;;;;;10.70;99.90;;;;;;5034972;28;19925;-82
2020/12/19 02:12:52;;;;;;;;;;;10.70;99.90;;;;;;5032400;28;19928;-79
2020/12/19 02:15:20;;;;;;;;;;;10.60;99.90;;;;;;5034854;28;20258;-81
2020/12/19 02:17:47;;;;;;;;;;;10.60;99.90;;;;;;5035156;28;19936;-81
2020/12/19 02:20:15;;;;;;;;;;;10.60;99.90;;;;;;5035179;28;20257;-80
2020/12/19 02:22:42;;;;;;;;;;;10.60;99.90;;;;;;5035154;28;19925;-80
2020/12/19 02:25:11;;;;;;;;;;;10.60;99.90;;;;;;5035066;28;20266;-81
2020/12/19 02:27:37;;;;;;;;;;;10.50;99.90;;;;;;5035014;28;19925;-79
2020/12/19 02:30:03;;;;;;;;;;;10.50;99.90;;;;;;5034815;28;19925;-80
2020/12/19 02:32:29;;;;;;;;;;;10.50;99.90;;;;;;5035077;28;20312;-82
2020/12/19 02:34:57;;;;;;;;;;;10.50;99.90;;;;;;5034733;28;19925;-80
2020/12/19 02:37:25;;;;;;;;;;;10.50;99.90;;;;;;5035708;28;20265;-81
2020/12/19 02:39:54;;;;;;;;;;;10.50;99.90;;;;;;5036196;28;19936;-82
2020/12/19 02:42:22;;;;;;;;;;;10.50;99.90;;;;;;5035230;28;20011;-81
2020/12/19 02:44:49;;;;;;;;;;;10.50;99.90;;;;;;5035042;28;19925;-78
2020/12/19 02:47:17;;;;;;;;;;;10.50;99.90;;;;;;5034672;28;19929;-80
2020/12/19 02:49:44;;;;;;;;;;;10.50;99.90;;;;;;5035025;28;20003;-83
2020/12/19 02:52:12;;;;;;;;;;;10.50;99.90;;;;;;5034896;28;19925;-84
2020/12/19 02:54:39;;;;;;;;;;;10.50;99.90;;;;;;5034798;28;19925;-80
2020/12/19 02:57:07;;;;;;;;;;;10.50;99.90;;;;;;5035029;28;19925;-85
2020/12/19 02:59:34;;;;;;;;;;;10.50;99.90;;;;;;5036788;28;20353;-80
2020/12/19 03:02:01;;;;;;;;;;;10.40;99.90;;;;;;5038779;28;19968;-81
2020/12/19 03:04:29;;;;;;;;;;;10.40;99.90;;;;;;5038899;28;20286;-86
2020/12/19 03:06:57;;;;;;;;;;;10.40;99.90;;;;;;5038746;28;20350;-80
2020/12/19 03:09:24;;;;;;;;;;;10.40;99.90;;;;;;5038583;28;19925;-82
2020/12/19 03:11:52;;;;;;;;;;;10.40;99.90;;;;;;5038594;28;19925;-81
2020/12/19 03:14:19;;;;;;;;;;;10.40;99.90;;;;;;5038467;28;19925;-80
2020/12/19 03:16:48;;;;;;;;;;;10.50;99.90;;;;;;5018840;28;19925;-80
2020/12/19 03:19:15;;;;;;;;;;;10.40;99.90;;;;;;5018604;28;19925;-83
2020/12/19 03:21:43;;;;;;;;;;;10.50;99.90;;;;;;5018642;28;20325;-83
2020/12/19 03:24:10;;;;;;;;;;;10.50;99.90;;;;;;5018711;28;19931;-82
2020/12/19 03:26:37;;;;;;;;;;;10.50;99.90;;;;;;5018553;28;19933;-83
2020/12/19 03:29:05;;;;;;;;;;;10.40;99.90;;;;;;5018412;28;19933;-83
2020/12/19 03:31:32;;;;;;;;;;;10.40;99.90;;;;;;5018560;28;20301;-83
2020/12/19 03:33:59;;;;;;;;;;;10.40;99.90;;;;;;5018381;28;19936;-83
2020/12/19 03:36:27;;;;;;;;;;;10.40;99.90;;;;;;5018333;28;19925;-80
2020/12/19 03:38:54;;;;;;;;;;;10.40;99.90;;;;;;5018466;28;19937;-80
2020/12/19 03:41:22;;;;;;;;;;;10.40;99.90;;;;;;5018383;28;20262;-81
2020/12/19 03:43:50;;;;;;;;;;;10.40;99.90;;;;;;5018454;28;20262;-82
2020/12/19 03:46:16;;;;;;;;;;;10.40;99.90;;;;;;5018396;28;19926;-82
2020/12/19 03:48:44;;;;;;;;;;;10.30;99.90;;;;;;5018001;28;20362;-80
2020/12/19 03:51:13;;;;;;;;;;;10.30;99.90;;;;;;5018155;28;19983;-83
2020/12/19 03:53:40;;;;;;;;;;;10.40;99.90;;;;;;5017849;28;20366;-83
2020/12/19 03:56:08;;;;;;;;;;;10.40;99.90;;;;;;5017902;28;19925;-83
2020/12/19 03:58:35;;;;;;;;;;;10.40;99.90;;;;;;5018187;28;19948;-84
2020/12/19 04:01:03;;;;;;;;;;;10.40;99.90;;;;;;5018066;28;19953;-81
2020/12/19 04:03:31;;;;;;;;;;;10.40;99.90;;;;;;5017979;28;19925;-82
2020/12/19 04:05:58;;;;;;;;;;;10.40;99.90;;;;;;5017768;28;19936;-82
2020/12/19 04:08:27;;;;;;;;;;;10.40;99.90;;;;;;5017728;28;19944;-83
2020/12/19 04:10:54;;;;;;;;;;;10.30;99.90;;;;;;5017588;28;19976;-81
2020/12/19 04:13:22;;;;;;;;;;;10.30;99.90;;;;;;5017842;28;19926;-83
2020/12/19 04:15:49;;;;;;;;;;;10.30;99.90;;;;;;5029509;28;19925;-83
2020/12/19 04:18:17;;;;;;;;;;;10.30;99.90;;;;;;5037634;28;19925;-84
2020/12/19 04:20:45;;;;;;;;;;;10.30;99.90;;;;;;5037242;28;19936;-83
2020/12/19 04:23:12;;;;;;;;;;;10.30;99.90;;;;;;5037473;28;19925;-83
2020/12/19 04:25:41;;;;;;;;;;;10.30;99.90;;;;;;5037567;28;19937;-83
2020/12/19 04:28:07;;;;;;;;;;;10.30;99.90;;;;;;5037326;28;20365;-83
2020/12/19 04:30:35;;;;;;;;;;;10.30;99.90;;;;;;5037011;28;19929;-84
2020/12/19 04:33:02;;;;;;;;;;;10.30;99.90;;;;;;5037136;28;19925;-83
2020/12/19 04:35:30;;;;;;;;;;;10.20;99.90;;;;;;5036985;28;19929;-85
2020/12/19 04:37:58;;;;;;;;;;;10.20;99.90;;;;;;5037164;28;19932;-82
2020/12/19 04:40:26;;;;;;;;;;;10.20;99.90;;;;;;5036907;28;19936;-85
2020/12/19 04:42:55;;;;;;;;;;;10.20;99.90;;;;;;5037031;28;20028;-82
2020/12/19 04:45:22;;;;;;;;;;;10.20;99.90;;;;;;5036966;28;19936;-84
2020/12/19 04:47:49;;;;;;;;;;;10.20;99.90;;;;;;5036873;28;19936;-85
2020/12/19 04:50:16;;;;;;;;;;;10.20;99.90;;;;;;5036598;28;19979;-84
2020/12/19 04:52:43;;;;;;;;;;;10.20;99.90;;;;;;5036640;28;20273;-84
2020/12/19 04:55:10;;;;;;;;;;;10.20;99.90;;;;;;5036518;28;19925;-85
2020/12/19 04:57:37;;;;;;;;;;;10.20;99.90;;;;;;5036605;28;19933;-84
2020/12/19 05:00:04;;;;;;;;;;;10.10;99.90;;;;;;5036520;28;19925;-85
2020/12/19 05:02:30;;;;;;;;;;;10.10;99.90;;;;;;5036520;28;19979;-83
2020/12/19 05:04:57;;;;;;;;;;;10.10;99.90;;;;;;5036622;28;19929;-83
2020/12/19 05:07:23;;;;;;;;;;;10.20;99.90;;;;;;5036565;28;19925;-77
2020/12/19 05:09:49;;;;;;;;;;;10.20;99.90;;;;;;5036285;28;19944;-77
2020/12/19 05:12:16;;;;;;;;;;;10.20;99.90;;;;;;5036293;28;19934;-77
2020/12/19 05:14:42;;;;;;;;;;;10.10;99.90;;;;;;5035641;28;19933;-77
2020/12/19 05:17:09;;;;;;;;;;;10.10;99.90;;;;;;5036165;28;19926;-77
2020/12/19 05:19:35;;;;;;;;;;;10.10;99.90;;;;;;5036095;28;19925;-77
2020/12/19 05:22:01;;;;;;;;;;;10.10;99.90;;;;;;5035347;28;20388;-78
2020/12/19 05:24:28;;;;;;;;;;;10.10;99.90;;;;;;5036239;28;20047;-79
2020/12/19 05:26:55;;;;;;;;;;;10.10;99.90;;;;;;5036053;28;19936;-80
2020/12/19 05:29:21;;;;;;;;;;;10.10;99.90;;;;;;5035945;28;19925;-77
2020/12/19 05:31:51;;;;;;;;;;;10.10;99.90;;;;;;5035951;28;20369;-78
2020/12/19 05:34:18;;;;;;;;;;;10.10;99.90;;;;;;5036231;28;19932;-78
2020/12/19 05:36:44;;;;;;;;;;;10.10;99.90;;;;;;5036086;28;19944;-79
2020/12/19 05:39:11;;;;;;;;;;;10.10;99.90;;;;;;5036070;28;19925;-77
2020/12/19 05:41:38;;;;;;;;;;;10.10;99.90;;;;;;5035931;28;20274;-78
2020/12/19 05:44:04;;;;;;;;;;;10.00;99.90;;;;;;5036085;28;19932;-77
2020/12/19 05:46:32;;;;;;;;;;;10.00;99.90;;;;;;5035892;28;20350;-78
2020/12/19 05:48:58;;;;;;;;;;;10.10;99.90;;;;;;5035624;28;19932;-78
2020/12/19 05:51:26;;;;;;;;;;;10.10;99.90;;;;;;5035774;28;19925;-78
2020/12/19 05:53:52;;;;;;;;;;;10.10;99.90;;;;;;5035690;28;19925;-78
2020/12/19 05:56:19;;;;;;;;;;;10.10;99.90;;;;;;5035484;28;20298;-78
2020/12/19 05:58:45;;;;;;;;;;;10.00;99.90;;;;;;5035591;28;19929;-78
2020/12/19 06:01:11;;;;;;;;;;;10.00;99.90;;;;;;5034971;28;19925;-77
2020/12/19 06:03:38;;;;;;;;;;;10.00;99.90;;;;;;5035599;28;20015;-78
2020/12/19 06:06:04;;;;;;;;;;;10.00;99.90;;;;;;5035578;28;19925;-79
2020/12/19 06:08:31;;;;;;;;;;;10.10;99.90;;;;;;5035383;28;19929;-77
2020/12/19 06:10:57;;;;;;;;;;;10.00;99.90;;;;;;5035242;28;19936;-77
2020/12/19 06:13:24;;;;;;;;;;;10.00;99.90;;;;;;5035296;28;19952;-79
2020/12/19 06:15:53;;;;;;;;;;;10.00;99.90;;;;;;5035211;28;19929;-77
2020/12/19 06:18:27;;;;;;;;;;;10.00;99.90;;;;;;5035479;28;19925;-78
2020/12/19 06:20:54;;;;;;;;;;;10.00;99.90;;;;;;5035414;28;20318;-77
2020/12/19 06:23:20;;;;;;;;;;;10.00;99.90;;;;;;5035273;28;19979;-77
2020/12/19 06:25:47;;;;;;;;;;;9.90;99.90;;;;;;5035068;28;19925;-78
2020/12/19 06:28:35;;;;;;;;;;;9.90;99.90;;;;;;5035095;28;19925;-78
2020/12/19 06:31:04;;;;;;;;;;;9.90;99.90;;;;;;5034821;28;19936;-77
2020/12/19 06:33:30;;;;;;;;;;;9.90;99.90;;;;;;5034954;28;19979;-78
2020/12/19 06:35:57;;;;;;;;;;;9.90;99.90;;;;;;5034894;28;19925;-77
2020/12/19 06:38:42;;;;;;;;;;;9.90;99.90;;;;;;5035145;28;19925;-77
2020/12/19 06:41:09;;;;;;;;;;;9.80;99.90;;;;;;5034780;28;19925;-78
2020/12/19 06:43:35;;;;;;;;;;;9.90;99.90;;;;;;5034793;28;19925;-79
2020/12/19 06:46:01;;;;;;;;;;;9.90;99.90;;;;;;5034828;28;20300;-77
2020/12/19 06:48:31;;;;;;;;;;;9.90;99.90;;;;;;5034957;28;19925;-79
2020/12/19 06:51:00;;;;;;;;;;;9.90;99.90;;;;;;5034847;28;20404;-79
2020/12/19 06:53:28;;;;;;;;;;;10.00;99.90;;;;;;5034818;28;19925;-77
2020/12/19 06:55:54;;;;;;;;;;;9.90;99.90;;;;;;5035030;28;19936;-77
2020/12/19 06:58:28;;;;;;;;;;;9.90;99.90;;;;;;5035060;28;20242;-77
2020/12/19 07:00:54;;;;;;;;;;;9.90;99.90;;;;;;5034630;28;20353;-77
2020/12/19 07:03:35;;;;;;;;;;;9.90;99.90;;;;;;5034909;28;19929;-78
2020/12/19 07:06:08;;;;;;;;;;;9.90;99.90;;;;;;5034627;28;19925;-78
2020/12/19 07:08:34;;;;;;;;;;;9.90;99.90;;;;;;5034905;28;19971;-79
2020/12/19 07:11:00;;;;;;;;;;;9.90;99.90;;;;;;5034680;28;19983;-78
2020/12/19 07:13:31;;;;;;;;;;;9.90;99.90;;;;;;5034681;28;19925;-77
2020/12/19 07:15:57;;;;;;;;;;;9.90;99.90;;;;;;5033585;28;19925;-78
2020/12/19 07:18:24;;;;;;;;;;;9.90;99.90;;;;;;5034915;28;19925;-79
2020/12/19 07:20:56;;;;;;;;;;;9.90;99.90;;;;;;5034736;28;19933;-78
2020/12/19 07:23:22;;;;;;;;;;;9.80;99.90;;;;;;5034716;28;19925;-78
2020/12/19 07:25:48;;;;;;;;;;;9.90;99.90;;;;;;5034551;28;19926;-77
2020/12/19 07:28:15;;;;;;;;;;;9.90;99.90;;;;;;5035799;28;20281;-89
2020/12/19 07:30:43;;;;;;;;;;;9.90;99.90;;;;;;5034380;28;19925;-86
2020/12/19 07:33:09;;;;;;;;;;;9.90;99.90;;;;;;5034407;28;19936;-85
2020/12/19 07:35:35;;;;;;;;;;;9.90;99.90;;;;;;5034288;28;19932;-85
2020/12/19 07:38:02;;;;;;;;;;;9.90;99.90;;;;;;5034541;28;19925;-85
2020/12/19 07:40:28;;;;;;;;;;;9.90;99.90;;;;;;5034631;28;19925;-85
2020/12/19 07:42:58;;;;;;;;;;;9.90;99.90;;;;;;5034545;28;19972;-86
2020/12/19 07:45:25;;;;;;;;;;;9.90;99.90;;;;;;5036192;28;20353;-85
2020/12/19 07:47:52;;;;;;;;;;;9.90;99.90;;;;;;5037634;28;19925;-85
2020/12/19 07:50:23;;;;;;;;;;;9.90;99.90;;;;;;5038003;28;19936;-85
2020/12/19 07:52:50;;;;;;;;;;;9.80;99.90;;;;;;5038069;28;20274;-85
2020/12/19 07:55:16;;;;;;;;;;;9.80;99.90;;;;;;5037566;28;19925;-85
2020/12/19 07:57:42;;;;;;;;;;;9.80;99.90;;;;;;5037751;28;19925;-85
2020/12/19 08:00:09;;;;;;;;;;;9.80;99.90;;;;;;5037521;28;19933;-86
2020/12/19 08:02:36;;;;;;;;;;;9.70;99.90;;;;;;5037596;28;19935;-86
2020/12/19 08:05:04;;;;;;;;;;;9.70;99.90;;;;;;5037656;28;19936;-86
2020/12/19 08:07:30;;;;;;;;;;;9.70;99.90;;;;;;5037775;28;19936;-85
2020/12/19 08:09:59;;;;;;;;;;;9.70;99.90;;;;;;5037594;28;19944;-85
2020/12/19 08:12:26;;;;;;;;;;;9.70;99.90;;;;;;5037574;28;19936;-85
2020/12/19 08:14:52;;;;;;;;;;;9.70;99.90;;;;;;5037407;28;19926;-85
2020/12/19 08:17:18;;;;;;;;;;;9.70;99.90;;;;;;5037470;28;19925;-85
2020/12/19 08:19:46;;;;;;;;;;;9.60;99.90;;;;;;5037541;28;19979;-85
2020/12/19 08:22:14;;;;;;;;;;;9.60;99.90;;;;;;5037447;28;19996;-86
2020/12/19 08:24:40;;;;;;;;;;;9.60;99.90;;;;;;5037188;28;19929;-86
2020/12/19 08:27:24;;;;;;;;;;;9.60;99.90;;;;;;5037351;28;19925;-85
2020/12/19 08:29:59;;;;;;;;;;;9.60;99.90;;;;;;5037087;28;19986;-85
2020/12/19 08:32:25;;;;;;;;;;;9.60;99.90;;;;;;5037313;28;19925;-86
2020/12/19 08:34:52;;;;;;;;;;;9.60;99.90;;;;;;5037355;28;20334;-86
2020/12/19 08:37:20;;;;;;;;;;;9.60;99.90;;;;;;5037053;28;19925;-86
2020/12/19 08:40:01;;;;;;;;;;;9.70;99.90;;;;;;5036971;28;19925;-86
2020/12/19 08:42:30;;;;;;;;;;;9.60;99.90;;;;;;5036883;28;19925;-86
2020/12/19 08:45:10;;;;;;;;;;;9.50;99.90;;;;;;5036980;28;19975;-86
2020/12/19 08:47:36;;;;;;;;;;;9.50;99.90;;;;;;5037191;28;19925;-86
2020/12/19 08:50:03;;;;;;;;;;;9.50;99.90;;;;;;5036460;28;19925;-86
2020/12/19 08:52:30;;;;;;;;;;;9.50;99.90;;;;;;5036722;28;19933;-86
2020/12/19 08:54:59;;;;;;;;;;;9.50;99.90;;;;;;5036578;28;19925;-86
2020/12/19 08:57:28;;;;;;;;;;;9.50;99.90;;;;;;5035923;28;19925;-86
2020/12/19 09:00:08;;;;;;;;;;;9.50;99.90;;;;;;5036587;28;19933;-87
2020/12/19 09:02:35;;;;;;;;;;;9.50;99.90;;;;;;5036639;28;19925;-87
2020/12/19 09:05:01;;;;;;;;;;;9.60;99.90;;;;;;5036477;28;19933;-86
2020/12/19 09:07:28;;;;;;;;;;;9.60;99.90;;;;;;5036391;28;19940;-87
2020/12/19 09:09:55;;;;;;;;;;;9.60;99.90;;;;;;5036594;28;20258;-86
2020/12/19 09:12:22;;;;;;;;;;;9.60;99.90;;;;;;5036496;28;20262;-87
2020/12/19 09:14:49;;;;;;;;;;;9.60;99.90;;;;;;5036140;28;19925;-86
2020/12/19 09:17:26;;;;;;;;;;;9.70;99.90;;;;;;5036540;28;19940;-87
2020/12/19 09:19:59;;;;;;;;;;;9.70;99.90;;;;;;5036259;28;19936;-86
2020/12/19 09:22:25;;;;;;;;;;;9.70;99.90;;;;;;5036326;28;19925;-86
2020/12/19 09:24:52;;;;;;;;;;;9.70;99.90;;;;;;5036275;28;19944;-86
2020/12/19 09:27:19;;;;;;;;;;;9.70;99.90;;;;;;5036082;28;20361;-86
2020/12/19 09:29:45;;;;;;;;;;;9.70;99.90;;;;;;5035878;28;20258;-86
2020/12/19 09:32:11;;;;;;;;;;;9.70;99.90;;;;;;5036019;28;19932;-86
2020/12/19 09:34:38;;;;;;;;;;;9.60;99.90;;;;;;5035811;28;20227;-86
2020/12/19 09:37:04;;;;;;;;;;;9.60;99.90;;;;;;5036054;28;19979;-86
2020/12/19 09:39:30;;;;;;;;;;;9.50;99.90;;;;;;5035883;28;20369;-86
2020/12/19 09:41:57;;;;;;;;;;;9.50;99.90;;;;;;5035960;28;19936;-87
2020/12/19 09:44:24;;;;;;;;;;;9.50;99.90;;;;;;5036091;28;19936;-86
2020/12/19 09:46:50;;;;;;;;;;;9.50;99.90;;;;;;5035778;28;19985;-86
2020/12/19 09:49:16;;;;;;;;;;;9.40;99.90;;;;;;5035579;28;19933;-86
2020/12/19 09:51:43;;;;;;;;;;;9.40;99.90;;;;;;5035615;28;19925;-87
2020/12/19 09:54:09;;;;;;;;;;;9.40;99.90;;;;;;5035533;28;19932;-87
2020/12/19 09:56:36;;;;;;;;;;;9.40;99.90;;;;;;5035592;28;19936;-87
2020/12/19 09:59:03;;;;;;;;;;;9.30;99.90;;;;;;5035799;28;19960;-87
2020/12/19 10:01:30;;;;;;;;;;;9.30;99.90;;;;;;5035296;28;20313;-87
2020/12/19 10:03:56;;;;;;;;;;;9.30;99.90;;;;;;5035330;28;19948;-86
2020/12/19 10:06:22;;;;;;;;;;;9.30;99.90;;;;;;5035587;28;19932;-86
2020/12/19 10:08:49;;;;;;;;;;;9.30;99.90;;;;;;5035077;28;20476;-86
2020/12/19 10:11:19;;;;;;;;;;;9.30;99.90;;;;;;5035323;28;19940;-86
2020/12/19 10:13:45;;;;;;;;;;;9.20;99.90;;;;;;5035290;28;20237;-87
2020/12/19 10:16:12;;;;;;;;;;;9.30;99.90;;;;;;5035031;28;19936;-87
2020/12/19 10:18:39;;;;;;;;;;;9.30;99.90;;;;;;5035410;28;20308;-87
2020/12/19 10:21:06;;;;;;;;;;;9.30;99.90;;;;;;5035353;28;19936;-87
2020/12/19 10:23:32;;;;;;;;;;;9.30;99.90;;;;;;5035284;28;19932;-87
2020/12/19 10:25:59;;;;;;;;;;;9.30;99.90;;;;;;5035077;28;19925;-87
2020/12/19 10:28:25;;;;;;;;;;;9.40;99.90;;;;;;5035197;28;19925;-87
2020/12/19 10:30:51;;;;;;;;;;;9.40;99.90;;;;;;5034884;28;19983;-87
2020/12/19 10:33:17;;;;;;;;;;;9.40;99.90;;;;;;5035297;28;19925;-87
2020/12/19 10:35:45;;;;;;;;;;;9.40;99.90;;;;;;5034874;28;19956;-87
2020/12/19 10:38:11;;;;;;;;;;;9.50;99.90;;;;;;5034848;28;20277;-87
2020/12/19 10:40:37;;;;;;;;;;;9.50;99.90;;;;;;5035017;28;19932;-87
2020/12/19 10:43:03;;;;;;;;;;;9.50;99.90;;;;;;5035046;28;19925;-87
2020/12/19 10:45:30;;;;;;;;;;;9.50;99.90;;;;;;5034988;28;20051;-87
2020/12/19 10:47:56;;;;;;;;;;;9.50;99.90;;;;;;5034808;28;19925;-87
2020/12/19 10:50:22;;;;;;;;;;;9.50;99.90;;;;;;5034889;28;20331;-87
2020/12/19 10:52:49;;;;;;;;;;;9.50;99.90;;;;;;5035011;28;19936;-86
2020/12/19 10:55:16;;;;;;;;;;;9.50;99.90;;;;;;5034673;28;19925;-87
2020/12/19 10:57:42;;;;;;;;;;;9.50;99.90;;;;;;5034759;28;20380;-87
2020/12/19 11:00:08;;;;;;;;;;;9.50;99.90;;;;;;5034556;28;19973;-87
2020/12/19 11:02:35;;;;;;;;;;;9.60;99.90;;;;;;5034910;28;19948;-87
2020/12/19 11:05:01;;;;;;;;;;;9.60;99.90;;;;;;5034933;28;19928;-87
2020/12/19 11:07:27;;;;;;;;;;;9.60;99.90;;;;;;5035140;28;20277;-87
2020/12/19 11:09:54;;;;;;;;;;;9.50;99.90;;;;;;5034834;28;19933;-87
2020/12/19 11:12:21;;;;;;;;;;;9.60;99.90;;;;;;5034646;28;19928;-88
2020/12/19 11:14:47;;;;;;;;;;;9.60;99.90;;;;;;5034531;28;19936;-87
2020/12/19 11:17:13;;;;;;;;;;;9.60;99.90;;;;;;5034614;28;19925;-87
2020/12/19 11:19:39;;;;;;;;;;;9.60;99.90;;;;;;5035464;28;19925;-87
2020/12/19 11:22:06;;;;;;;;;;;9.70;99.90;;;;;;5038424;28;20000;-87
2020/12/19 11:24:32;;;;;;;;;;;9.60;99.90;;;;;;5038522;28;20265;-87
2020/12/19 11:26:59;;;;;;;;;;;9.60;99.90;;;;;;5038360;28;19925;-87
2020/12/19 11:29:26;;;;;;;;;;;9.60;99.90;;;;;;5038078;28;19925;-87
2020/12/19 11:31:52;;;;;;;;;;;9.60;99.90;;;;;;5038543;28;20393;-87
2020/12/19 11:34:18;;;;;;;;;;;9.60;99.90;;;;;;5038075;28;20412;-87
2020/12/19 11:36:45;;;;;;;;;;;9.60;99.90;;;;;;5038083;28;20342;-88
2020/12/19 11:39:11;;;;;;;;;;;9.60;99.90;;;;;;5038146;28;19936;-88
2020/12/19 11:41:37;;;;;;;;;;;9.60;99.90;;;;;;5038216;28;19926;-88
2020/12/19 11:44:04;;;;;;;;;;;9.60;99.90;;;;;;5038123;28;19925;-88
2020/12/19 11:46:31;;;;;;;;;;;9.60;99.90;;;;;;5038131;28;19959;-87
2020/12/19 11:49:00;;;;;;;;;;;9.60;99.90;;;;;;5037847;28;19991;-88
2020/12/19 11:51:27;;;;;;;;;;;9.60;99.90;;;;;;5037873;28;19978;-88
2020/12/19 11:53:56;;;;;;;;;;;9.60;99.90;;;;;;5038003;28;19933;-88
2020/12/19 11:56:26;;;;;;;;;;;9.60;99.90;;;;;;5037749;28;19932;-88
2020/12/19 11:58:54;;;;;;;;;;;9.50;99.90;;;;;;5037829;28;20015;-88
2020/12/19 12:01:26;;;;;;;;;;;9.60;99.90;;;;;;5037904;28;19972;-89
2020/12/19 12:03:52;;;;;;;;;;;9.50;99.90;;;;;;5037893;28;19965;-89
2020/12/19 12:06:25;;;;;;;;;;;9.50;99.90;;;;;;5037632;28;20345;-89
2020/12/19 12:08:52;;;;;;;;;;;9.50;99.90;;;;;;5037545;28;19925;-88
2020/12/19 12:11:24;;;;;;;;;;;9.50;99.90;;;;;;5037451;28;19925;-87
2020/12/19 12:13:50;;;;;;;;;;;9.50;99.90;;;;;;5037184;28;19956;-87
2020/12/19 12:16:16;;;;;;;;;;;9.40;99.90;;;;;;5037252;28;19925;-88
2020/12/19 12:18:43;;;;;;;;;;;9.40;99.90;;;;;;5037384;28;19925;-88
2020/12/19 12:21:10;;;;;;;;;;;9.40;99.90;;;;;;5037629;28;20342;-88
2020/12/19 12:23:36;;;;;;;;;;;9.40;99.90;;;;;;5037641;28;19962;-87
2020/12/19 12:26:02;;;;;;;;;;;9.40;99.90;;;;;;5037339;28;20239;-87
2020/12/19 12:28:28;;;;;;;;;;;9.30;99.90;;;;;;5037400;28;19932;-88
2020/12/19 12:30:57;;;;;;;;;;;9.40;99.90;;;;;;5036915;28;19956;-89
2020/12/19 12:33:23;;;;;;;;;;;9.30;99.90;;;;;;5037301;28;20312;-88
2020/12/19 12:35:50;;;;;;;;;;;9.30;99.90;;;;;;5037443;28;19925;-88
2020/12/19 12:38:17;;;;;;;;;;;9.30;99.90;;;;;;5037212;28;20346;-91
2020/12/19 12:40:43;;;;;;;;;;;9.10;99.90;;;;;;5033539;28;20348;-93
2020/12/19 12:43:10;;;;;;;;;;;9.40;99.90;;;;;;5036213;28;19936;-93
2020/12/19 12:45:39;;;;;;;;;;;9.40;99.90;;;;;;5037468;28;19936;-92
2020/12/19 12:48:06;;;;;;;;;;;9.70;99.90;;;;;;5036666;28;19936;-91
2020/12/19 12:50:32;;;;;;;;;;;6.40;99.90;;;;;;5036846;28;19987;-91
2020/12/19 12:53:00;;;;;;;;;;;9.60;99.90;;;;;;5037069;28;20249;-92
2020/12/19 12:55:26;;;;;;;;;;;9.20;99.90;;;;;;5036902;28;20428;-91
2020/12/19 12:57:54;;;;;;;;;;;9.20;99.90;;;;;;5035214;28;19925;-92
2020/12/19 13:00:20;;;;;;;;;;;9.30;99.90;;;;;;5035499;28;19943;-91
2020/12/19 13:02:47;;;;;;;;;;;9.30;99.90;;;;;;5036257;28;19986;-91
2020/12/19 13:05:13;;;;;;;;;;;9.50;99.90;;;;;;5036613;28;19925;-91
2020/12/19 13:07:42;;;;;;;;;;;9.30;99.90;;;;;;5036926;28;19935;-92
2020/12/19 13:10:09;;;;;;;;;;;9.50;99.90;;;;;;5036860;28;19928;-92
2020/12/19 13:12:36;;;;;;;;;;;9.50;99.90;;;;;;5036567;28;19952;-91
2020/12/19 13:15:02;;;;;;;;;;;9.30;99.90;;;;;;5036324;28;20408;-92
2020/12/19 13:17:29;;;;;;;;;;;9.50;99.90;;;;;;5033660;28;20133;-92
2020/12/19 13:20:00;;;;;;;;;;;8.00;99.90;;;;;;5036058;28;20215;-91
2020/12/19 13:22:27;;;;;;;;;;;9.10;99.90;;;;;;5034520;28;19967;-91
2020/12/19 13:24:53;;;;;;;;;;;9.40;99.90;;;;;;5035867;28;19951;-92
2020/12/19 13:27:21;;;;;;;;;;;11.60;99.90;;;;;;5036058;28;19925;-91
2020/12/19 13:29:49;;;;;;;;;;;10.00;99.90;;;;;;5036076;28;20015;-90
2020/12/19 13:32:17;;;;;;;;;;;9.20;99.90;;;;;;5038629;28;20031;-93
2020/12/19 13:34:44;;;;;;;;;;;9.20;99.90;;;;;;5034280;28;20028;-93
2020/12/19 13:37:11;;;;;;;;;;;9.40;99.90;;;;;;5034613;28;19925;-92
2020/12/19 13:39:38;;;;;;;;;;;9.10;99.90;;;;;;5035447;28;19935;-93
2020/12/19 13:42:05;;;;;;;;;;;9.00;99.90;;;;;;5034944;28;20012;-92
2020/12/19 13:44:32;;;;;;;;;;;9.70;99.90;;;;;;5035647;28;20319;-92
2020/12/19 13:47:04;;;;;;;;;;;8.40;99.90;;;;;;5035856;28;19925;-93
2020/12/19 13:49:30;;;;;;;;;;;9.10;99.90;;;;;;5035734;28;19968;-93
2020/12/19 13:51:57;;;;;;;;;;;9.80;99.90;;;;;;5036392;28;19924;-92
2020/12/19 13:54:23;;;;;;;;;;;7.30;99.90;;;;;;5036186;28;19957;-92
2020/12/19 13:56:50;;;;;;;;;;;9.40;99.90;;;;;;5041034;28;19924;-90
2020/12/19 13:59:16;;;;;;;;;;;9.10;99.90;;;;;;5035680;28;19925;-92
2020/12/19 14:01:45;;;;;;;;;;;9.10;99.90;;;;;;5035855;28;19925;-91
2020/12/19 14:04:12;;;;;;;;;;;9.30;99.90;;;;;;5035636;28;20016;-92
2020/12/19 14:06:40;;;;;;;;;;;9.10;99.90;;;;;;5035745;28;20014;-91
2020/12/19 14:09:08;;;;;;;;;;;9.10;99.90;;;;;;5035598;28;19975;-91
2020/12/19 14:11:39;;;;;;;;;;;9.10;99.90;;;;;;5035745;28;19925;-91
2020/12/19 14:14:06;;;;;;;;;;;9.10;99.90;;;;;;5035804;28;19925;-91
2020/12/19 14:16:34;;;;;;;;;;;9.20;99.90;;;;;;5035218;28;19925;-90
2020/12/19 14:19:04;;;;;;;;;;;9.20;99.90;;;;;;5035452;28;19957;-91
2020/12/19 14:21:31;;;;;;;;;;;7.00;99.90;;;;;;5035223;28;19925;-93
2020/12/19 14:23:59;;;;;;;;;;;8.80;99.90;;;;;;5034660;28;20012;-92
2020/12/19 14:26:39;;;;;;;;;;;9.30;99.90;;;;;;5034984;28;20401;-93
2020/12/19 14:29:06;;;;;;;;;;;9.10;99.90;;;;;;5031786;28;20297;-91